createdAt,value
2023-01-09T00:00:24.751Z,86
2023-01-09T00:00:56.333Z,86
2023-01-09T00:01:27.912Z,86
2023-01-09T00:02:00.169Z,86
2023-01-09T00:02:32.220Z,86
2023-01-09T00:02:54.961Z,86
2023-01-09T00:03:17.667Z,86
2023-01-09T00:03:52.422Z,86
2023-01-09T00:04:24.233Z,87
2023-01-09T00:04:56.402Z,87
2023-01-09T00:05:27.698Z,87
2023-01-09T00:06:00.855Z,86
2023-01-09T00:06:32.268Z,86
2023-01-09T00:06:55.046Z,86
2023-01-09T00:07:17.366Z,86
2023-01-09T00:07:52.468Z,86
2023-01-09T00:08:24.169Z,87
2023-01-09T00:08:56.261Z,87
2023-01-09T00:09:27.683Z,87
2023-01-09T00:10:00.383Z,87
2023-01-09T00:10:33.667Z,87
2023-01-09T00:10:55.380Z,87
2023-01-09T00:11:17.847Z,87
2023-01-09T00:11:52.164Z,87
2023-01-09T00:12:24.160Z,87
2023-01-09T00:12:56.148Z,87
2023-01-09T00:13:27.776Z,87
2023-01-09T00:14:00.164Z,87
2023-01-09T00:14:32.479Z,86
2023-01-09T00:14:55.109Z,86
2023-01-09T00:15:17.554Z,87
2023-01-09T00:15:52.364Z,86
2023-01-09T00:16:24.379Z,86
2023-01-09T00:16:56.482Z,86
2023-01-09T00:17:28.214Z,86
2023-01-09T00:18:00.313Z,86
2023-01-09T00:18:32.174Z,86
2023-01-09T00:18:55.100Z,86
2023-01-09T00:19:17.478Z,86
2023-01-09T00:19:52.286Z,86
2023-01-09T00:20:24.279Z,86
2023-01-09T00:20:56.291Z,86
2023-01-09T00:21:28.562Z,86
2023-01-09T00:22:00.290Z,86
2023-01-09T00:22:33.713Z,86
2023-01-09T00:22:56.166Z,86
2023-01-09T00:23:18.317Z,86
2023-01-09T00:23:52.149Z,86
2023-01-09T00:24:24.255Z,86
2023-01-09T00:24:56.308Z,86
2023-01-09T00:25:28.931Z,86
2023-01-09T00:26:00.367Z,86
2023-01-09T00:26:32.641Z,86
2023-01-09T00:26:55.278Z,86
2023-01-09T00:27:17.683Z,86
2023-01-09T00:27:52.187Z,86
2023-01-09T00:28:24.490Z,86
2023-01-09T00:28:57.837Z,86
2023-01-09T00:29:29.422Z,86
2023-01-09T00:30:00.425Z,85
2023-01-09T00:30:32.293Z,85
2023-01-09T00:30:55.141Z,85
2023-01-09T00:31:17.364Z,85
2023-01-09T00:31:52.171Z,85
2023-01-09T00:32:24.253Z,85
2023-01-09T00:32:56.219Z,85
2023-01-09T00:33:27.802Z,84
2023-01-09T00:34:00.165Z,85
2023-01-09T00:34:32.279Z,85
2023-01-09T00:34:55.863Z,85
2023-01-09T00:35:18.037Z,85
2023-01-09T00:35:52.327Z,84
2023-01-09T00:36:24.309Z,85
2023-01-09T00:36:57.760Z,84
2023-01-09T00:37:28.063Z,84
2023-01-09T00:38:00.223Z,85
2023-01-09T00:38:32.272Z,85
2023-01-09T00:38:54.891Z,84
2023-01-09T00:39:17.300Z,84
2023-01-09T00:39:52.481Z,85
2023-01-09T00:40:24.268Z,85
2023-01-09T00:40:56.315Z,85
2023-01-09T00:41:27.696Z,85
2023-01-09T00:42:00.224Z,85
2023-01-09T00:42:32.148Z,85
2023-01-09T00:42:55.953Z,85
2023-01-09T00:43:18.226Z,85
2023-01-09T00:43:52.425Z,85
2023-01-09T00:44:24.397Z,85
2023-01-09T00:44:56.237Z,85
2023-01-09T00:45:27.767Z,85
2023-01-09T00:46:00.269Z,85
2023-01-09T00:46:32.667Z,85
2023-01-09T00:46:54.877Z,85
2023-01-09T00:47:17.205Z,85
2023-01-09T00:47:52.405Z,85
2023-01-09T00:48:24.262Z,85
2023-01-09T00:48:56.221Z,85
2023-01-09T00:49:27.680Z,85
2023-01-09T00:50:00.204Z,85
2023-01-09T00:50:32.288Z,85
2023-01-09T00:50:54.952Z,85
2023-01-09T00:51:17.420Z,85
2023-01-09T00:51:52.160Z,86
2023-01-09T00:52:24.347Z,86
2023-01-09T00:52:56.293Z,86
2023-01-09T00:53:27.929Z,86
2023-01-09T00:54:00.212Z,87
2023-01-09T00:54:32.675Z,87
2023-01-09T00:54:54.923Z,87
2023-01-09T00:55:17.226Z,87
2023-01-09T00:55:52.350Z,87
2023-01-09T00:56:24.241Z,87
2023-01-09T00:56:56.227Z,87
2023-01-09T00:57:27.806Z,87
2023-01-09T00:58:00.357Z,87
2023-01-09T00:58:33.401Z,87
2023-01-09T00:58:55.055Z,87
2023-01-09T00:59:17.431Z,87
2023-01-09T00:59:52.482Z,87
2023-01-09T01:00:25.488Z,87
2023-01-09T01:00:56.291Z,87
2023-01-09T01:01:27.878Z,88
2023-01-09T01:02:00.488Z,88
2023-01-09T01:02:33.595Z,89
2023-01-09T01:02:55.009Z,89
2023-01-09T01:03:17.327Z,88
2023-01-09T01:03:52.401Z,88
2023-01-09T01:04:24.309Z,88
2023-01-09T01:04:57.070Z,88
2023-01-09T01:05:27.862Z,88
2023-01-09T01:06:00.263Z,88
2023-01-09T01:06:34.040Z,89
2023-01-09T01:06:55.256Z,89
2023-01-09T01:07:17.984Z,89
2023-01-09T01:07:52.613Z,89
2023-01-09T01:08:24.286Z,89
2023-01-09T01:08:56.311Z,89
2023-01-09T01:09:27.770Z,89
2023-01-09T01:10:00.359Z,90
2023-01-09T01:10:32.206Z,90
2023-01-09T01:10:55.293Z,90
2023-01-09T01:11:17.546Z,90
2023-01-09T01:11:52.416Z,90
2023-01-09T01:12:24.279Z,90
2023-01-09T01:12:56.323Z,90
2023-01-09T01:13:27.756Z,90
2023-01-09T01:14:00.277Z,90
2023-01-09T01:14:32.172Z,90
2023-01-09T01:14:55.059Z,91
2023-01-09T01:15:17.387Z,91
2023-01-09T01:15:52.373Z,91
2023-01-09T01:16:24.244Z,91
2023-01-09T01:16:56.209Z,91
2023-01-09T01:17:27.908Z,91
2023-01-09T01:18:00.672Z,91
2023-01-09T01:18:32.286Z,91
2023-01-09T01:18:55.128Z,91
2023-01-09T01:19:17.430Z,91
2023-01-09T01:19:52.206Z,91
2023-01-09T01:20:24.390Z,91
2023-01-09T01:20:56.275Z,91
2023-01-09T01:21:27.997Z,91
2023-01-09T01:22:00.179Z,91
2023-01-09T01:22:32.316Z,92
2023-01-09T01:22:56.818Z,92
2023-01-09T01:23:18.722Z,92
2023-01-09T01:23:52.298Z,92
2023-01-09T01:24:24.200Z,92
2023-01-09T01:24:56.190Z,92
2023-01-09T01:25:27.757Z,92
2023-01-09T01:26:00.324Z,92
2023-01-09T01:26:32.145Z,92
2023-01-09T01:26:55.004Z,92
2023-01-09T01:27:17.236Z,92
2023-01-09T01:27:52.299Z,92
2023-01-09T01:28:24.288Z,92
2023-01-09T01:28:56.202Z,92
2023-01-09T01:29:27.888Z,92
2023-01-09T01:30:00.229Z,92
2023-01-09T01:30:32.600Z,92
2023-01-09T01:30:55.210Z,92
2023-01-09T01:31:17.460Z,92
2023-01-09T01:31:52.282Z,92
2023-01-09T01:32:24.409Z,92
2023-01-09T01:32:56.158Z,92
2023-01-09T01:33:27.785Z,92
2023-01-09T01:34:00.154Z,92
2023-01-09T01:34:32.574Z,92
2023-01-09T01:34:55.598Z,92
2023-01-09T01:35:17.888Z,92
2023-01-09T01:35:52.410Z,92
2023-01-09T01:36:24.400Z,92
2023-01-09T01:36:56.387Z,92
2023-01-09T01:37:27.909Z,92
2023-01-09T01:38:00.375Z,92
2023-01-09T01:38:32.271Z,93
2023-01-09T01:38:55.782Z,93
2023-01-09T01:39:23.665Z,93
2023-01-09T01:39:52.419Z,93
2023-01-09T01:40:24.453Z,93
2023-01-09T01:40:56.272Z,93
2023-01-09T01:41:27.838Z,93
2023-01-09T01:42:00.519Z,93
2023-01-09T01:42:32.154Z,93
2023-01-09T01:42:54.982Z,93
2023-01-09T01:43:17.279Z,93
2023-01-09T01:43:52.261Z,93
2023-01-09T01:44:24.219Z,93
2023-01-09T01:44:56.483Z,93
2023-01-09T01:45:27.900Z,93
2023-01-09T01:46:00.472Z,93
2023-01-09T01:46:32.241Z,93
2023-01-09T01:46:55.070Z,93
2023-01-09T01:47:17.357Z,93
2023-01-09T01:47:52.519Z,93
2023-01-09T01:48:24.415Z,93
2023-01-09T01:48:56.147Z,93
2023-01-09T01:49:27.811Z,93
2023-01-09T01:50:00.172Z,93
2023-01-09T01:50:32.263Z,93
2023-01-09T01:50:54.998Z,93
2023-01-09T01:51:17.419Z,93
2023-01-09T01:51:52.323Z,93
2023-01-09T01:52:24.366Z,93
2023-01-09T01:52:56.134Z,93
2023-01-09T01:53:28.105Z,93
2023-01-09T01:54:00.291Z,93
2023-01-09T01:54:32.530Z,93
2023-01-09T01:54:55.113Z,93
2023-01-09T01:55:17.358Z,93
2023-01-09T01:55:52.245Z,93
2023-01-09T01:56:24.273Z,93
2023-01-09T01:56:56.270Z,93
2023-01-09T01:57:28.113Z,93
2023-01-09T01:58:00.259Z,93
2023-01-09T01:58:32.239Z,93
2023-01-09T01:58:55.261Z,93
2023-01-09T01:59:17.339Z,93
2023-01-09T01:59:52.242Z,93
2023-01-09T02:00:24.689Z,93
2023-01-09T02:00:56.487Z,93
2023-01-09T02:01:27.983Z,93
2023-01-09T02:02:00.465Z,93
2023-01-09T02:02:32.758Z,93
2023-01-09T02:02:55.370Z,93
2023-01-09T02:03:17.762Z,93
2023-01-09T02:03:52.274Z,94
2023-01-09T02:04:24.345Z,93
2023-01-09T02:04:56.281Z,94
2023-01-09T02:05:27.988Z,94
2023-01-09T02:06:00.240Z,94
2023-01-09T02:06:32.257Z,94
2023-01-09T02:06:55.057Z,94
2023-01-09T02:07:17.381Z,94
2023-01-09T02:07:52.328Z,94
2023-01-09T02:08:24.138Z,94
2023-01-09T02:08:56.171Z,94
2023-01-09T02:09:27.787Z,94
2023-01-09T02:10:00.178Z,94
2023-01-09T02:10:32.240Z,94
2023-01-09T02:10:55.498Z,94
2023-01-09T02:11:17.740Z,94
2023-01-09T02:11:52.630Z,94
2023-01-09T02:12:24.127Z,94
2023-01-09T02:12:56.290Z,94
2023-01-09T02:13:27.768Z,94
2023-01-09T02:14:00.180Z,94
2023-01-09T02:14:32.186Z,94
2023-01-09T02:14:54.909Z,94
2023-01-09T02:15:17.813Z,94
2023-01-09T02:15:52.341Z,94
2023-01-09T02:16:24.237Z,94
2023-01-09T02:16:56.338Z,94
2023-01-09T02:17:34.336Z,94
2023-01-09T02:18:00.252Z,94
2023-01-09T02:18:32.461Z,94
2023-01-09T02:18:55.720Z,94
2023-01-09T02:19:18.120Z,94
2023-01-09T02:19:52.117Z,94
2023-01-09T02:20:24.251Z,94
2023-01-09T02:20:56.413Z,95
2023-01-09T02:21:29.281Z,95
2023-01-09T02:22:00.187Z,95
2023-01-09T02:22:32.365Z,95
2023-01-09T02:22:56.347Z,95
2023-01-09T02:23:18.470Z,95
2023-01-09T02:23:52.319Z,95
2023-01-09T02:24:24.249Z,95
2023-01-09T02:24:57.761Z,95
2023-01-09T02:25:28.762Z,95
2023-01-09T02:26:00.169Z,95
2023-01-09T02:26:32.137Z,95
2023-01-09T02:26:54.964Z,95
2023-01-09T02:27:17.244Z,95
2023-01-09T02:27:52.275Z,95
2023-01-09T02:28:24.240Z,95
2023-01-09T02:28:56.152Z,95
2023-01-09T02:29:27.872Z,95
2023-01-09T02:30:00.343Z,95
2023-01-09T02:30:32.140Z,95
2023-01-09T02:30:54.728Z,95
2023-01-09T02:31:17.127Z,95
2023-01-09T02:31:52.360Z,95
2023-01-09T02:32:24.182Z,95
2023-01-09T02:32:56.309Z,95
2023-01-09T02:33:28.018Z,95
2023-01-09T02:34:00.220Z,95
2023-01-09T02:34:32.248Z,95
2023-01-09T02:34:56.301Z,95
2023-01-09T02:35:18.544Z,95
2023-01-09T02:35:52.204Z,95
2023-01-09T02:36:24.300Z,95
2023-01-09T02:36:56.177Z,95
2023-01-09T02:37:27.856Z,95
2023-01-09T02:37:57.289Z,95
2023-01-09T02:38:28.379Z,95
2023-01-09T02:39:01.130Z,95
2023-01-09T02:39:37.015Z,95
2023-01-09T02:39:59.421Z,95
2023-01-09T02:40:21.745Z,95
2023-01-09T02:40:57.242Z,95
2023-01-09T02:41:27.859Z,95
2023-01-09T02:42:00.265Z,95
2023-01-09T02:42:32.140Z,95
2023-01-09T02:42:54.866Z,95
2023-01-09T02:43:17.911Z,95
2023-01-09T02:43:53.707Z,95
2023-01-09T02:44:25.300Z,95
2023-01-09T02:44:56.710Z,95
2023-01-09T02:45:28.664Z,95
2023-01-09T02:46:00.275Z,95
2023-01-09T02:46:32.615Z,95
2023-01-09T02:46:55.264Z,95
2023-01-09T02:47:18.422Z,95
2023-01-09T02:47:53.081Z,95
2023-01-09T02:48:24.446Z,95
2023-01-09T02:48:56.248Z,95
2023-01-09T02:49:28.479Z,95
2023-01-09T02:50:01.644Z,95
2023-01-09T02:50:32.611Z,95
2023-01-09T02:50:55.256Z,95
2023-01-09T02:51:18.113Z,95
2023-01-09T02:51:52.370Z,95
2023-01-09T02:52:24.205Z,95
2023-01-09T02:52:56.178Z,95
2023-01-09T02:53:28.512Z,95
2023-01-09T02:54:00.638Z,95
2023-01-09T02:54:32.802Z,95
2023-01-09T02:54:55.603Z,95
2023-01-09T02:55:18.178Z,95
2023-01-09T02:55:52.563Z,95
2023-01-09T02:56:25.489Z,95
2023-01-09T02:56:56.951Z,95
2023-01-09T02:57:27.826Z,95
2023-01-09T02:58:00.331Z,95
2023-01-09T02:58:32.207Z,95
2023-01-09T02:58:54.997Z,95
2023-01-09T02:59:17.373Z,95
2023-01-09T02:59:53.968Z,95
2023-01-09T03:00:26.875Z,95
2023-01-09T03:00:57.073Z,95
2023-01-09T03:01:29.308Z,95
2023-01-09T03:02:00.321Z,95
2023-01-09T03:02:32.824Z,95
2023-01-09T03:02:55.451Z,95
2023-01-09T03:03:17.934Z,95
2023-01-09T03:03:52.732Z,95
2023-01-09T03:04:24.228Z,95
2023-01-09T03:04:57.112Z,95
2023-01-09T03:05:28.136Z,95
2023-01-09T03:06:00.557Z,95
2023-01-09T03:06:32.176Z,95
2023-01-09T03:06:54.870Z,95
2023-01-09T03:07:19.271Z,95
2023-01-09T03:07:52.641Z,95
2023-01-09T03:08:27.910Z,95
2023-01-09T03:08:50.274Z,95
2023-01-09T03:09:28.139Z,95
2023-01-09T03:10:00.159Z,95
2023-01-09T03:10:32.443Z,95
2023-01-09T03:10:56.397Z,95
2023-01-09T03:11:18.572Z,95
2023-01-09T03:11:52.206Z,95
2023-01-09T03:12:24.254Z,95
2023-01-09T03:12:58.797Z,95
2023-01-09T03:13:28.391Z,95
2023-01-09T03:14:00.175Z,95
2023-01-09T03:14:32.230Z,95
2023-01-09T03:14:55.013Z,95
2023-01-09T03:15:17.430Z,95
2023-01-09T03:15:52.157Z,95
2023-01-09T03:16:24.405Z,95
2023-01-09T03:16:56.216Z,95
2023-01-09T03:17:27.745Z,95
2023-01-09T03:18:00.427Z,95
2023-01-09T03:18:32.183Z,95
2023-01-09T03:18:54.959Z,95
2023-01-09T03:19:17.316Z,95
2023-01-09T03:19:52.182Z,95
2023-01-09T03:20:24.202Z,95
2023-01-09T03:21:01.662Z,95
2023-01-09T03:21:28.013Z,95
2023-01-09T03:22:00.252Z,95
2023-01-09T03:22:32.247Z,95
2023-01-09T03:23:01.152Z,95
2023-01-09T03:23:36.637Z,95
2023-01-09T03:23:58.970Z,95
2023-01-09T03:24:21.488Z,95
2023-01-09T03:24:57.084Z,95
2023-01-09T03:25:27.853Z,95
2023-01-09T03:26:00.498Z,95
2023-01-09T03:26:32.278Z,95
2023-01-09T03:26:54.966Z,95
2023-01-09T03:27:17.649Z,95
2023-01-09T03:27:52.162Z,95
2023-01-09T03:28:24.368Z,95
2023-01-09T03:28:56.160Z,95
2023-01-09T03:29:29.566Z,95
2023-01-09T03:30:01.487Z,95
2023-01-09T03:30:32.309Z,95
2023-01-09T03:30:55.003Z,95
2023-01-09T03:31:17.414Z,95
2023-01-09T03:31:52.325Z,95
2023-01-09T03:32:24.159Z,95
2023-01-09T03:32:56.929Z,95
2023-01-09T03:33:27.941Z,95
2023-01-09T03:34:00.465Z,95
2023-01-09T03:34:32.274Z,95
2023-01-09T03:34:55.155Z,95
2023-01-09T03:35:17.584Z,94
2023-01-09T03:35:52.968Z,94
2023-01-09T03:36:24.578Z,94
2023-01-09T03:36:56.739Z,94
2023-01-09T03:37:28.780Z,94
2023-01-09T03:38:00.808Z,94
2023-01-09T03:38:32.387Z,94
2023-01-09T03:38:55.352Z,94
2023-01-09T03:39:17.558Z,94
2023-01-09T03:39:52.846Z,94
2023-01-09T03:40:24.394Z,94
2023-01-09T03:40:56.137Z,94
2023-01-09T03:41:28.481Z,94
2023-01-09T03:42:00.151Z,94
2023-01-09T03:42:32.488Z,94
2023-01-09T03:42:55.419Z,94
2023-01-09T03:43:18.457Z,94
2023-01-09T03:43:52.659Z,94
2023-01-09T03:44:24.839Z,94
2023-01-09T03:44:56.617Z,94
2023-01-09T03:45:28.380Z,94
2023-01-09T03:46:01.400Z,94
2023-01-09T03:46:32.357Z,94
2023-01-09T03:46:55.068Z,94
2023-01-09T03:47:17.818Z,94
2023-01-09T03:47:53.184Z,94
2023-01-09T03:48:24.218Z,94
2023-01-09T03:48:56.388Z,94
2023-01-09T03:49:28.332Z,94
2023-01-09T03:50:00.578Z,94
2023-01-09T03:50:32.385Z,94
2023-01-09T03:50:55.763Z,94
2023-01-09T03:51:18.068Z,94
2023-01-09T03:51:53.194Z,94
2023-01-09T03:52:24.552Z,94
2023-01-09T03:52:56.944Z,94
2023-01-09T03:53:28.267Z,94
2023-01-09T03:54:00.358Z,94
2023-01-09T03:54:32.336Z,94
2023-01-09T03:54:55.036Z,94
2023-01-09T03:55:17.429Z,94
2023-01-09T03:55:54.036Z,94
2023-01-09T03:56:24.826Z,94
2023-01-09T03:56:57.315Z,94
2023-01-09T03:57:28.797Z,94
2023-01-09T03:58:00.239Z,94
2023-01-09T03:58:32.383Z,94
2023-01-09T03:58:54.993Z,94
2023-01-09T03:59:17.989Z,94
2023-01-09T03:59:53.963Z,94
2023-01-09T04:00:24.594Z,94
2023-01-09T04:00:56.226Z,94
2023-01-09T04:01:28.402Z,94
2023-01-09T04:02:02.216Z,94
2023-01-09T04:02:32.865Z,94
2023-01-09T04:02:55.614Z,94
2023-01-09T04:03:17.984Z,94
2023-01-09T04:03:52.484Z,94
2023-01-09T04:04:24.261Z,94
2023-01-09T04:04:57.580Z,94
2023-01-09T04:05:28.128Z,94
2023-01-09T04:06:00.156Z,94
2023-01-09T04:06:33.577Z,94
2023-01-09T04:06:54.907Z,94
2023-01-09T04:07:18.039Z,94
2023-01-09T04:07:52.384Z,94
2023-01-09T04:08:26.534Z,94
2023-01-09T04:08:56.787Z,94
2023-01-09T04:09:27.944Z,94
2023-01-09T04:10:00.164Z,94
2023-01-09T04:10:32.356Z,94
2023-01-09T04:10:55.522Z,94
2023-01-09T04:11:18.290Z,94
2023-01-09T04:11:52.222Z,94
2023-01-09T04:12:24.149Z,94
2023-01-09T04:12:56.163Z,94
2023-01-09T04:13:27.890Z,94
2023-01-09T04:14:01.357Z,94
2023-01-09T04:14:32.078Z,94
2023-01-09T04:14:55.764Z,94
2023-01-09T04:15:17.511Z,94
2023-01-09T04:15:53.459Z,94
2023-01-09T04:16:24.860Z,94
2023-01-09T04:16:56.486Z,94
2023-01-09T04:17:28.745Z,94
2023-01-09T04:18:00.247Z,94
2023-01-09T04:18:32.266Z,94
2023-01-09T04:18:55.930Z,94
2023-01-09T04:19:17.304Z,94
2023-01-09T04:19:52.651Z,94
2023-01-09T04:20:25.321Z,94
2023-01-09T04:20:56.547Z,94
2023-01-09T04:21:27.845Z,94
2023-01-09T04:22:01.009Z,94
2023-01-09T04:22:32.801Z,94
2023-01-09T04:22:56.678Z,94
2023-01-09T04:23:18.482Z,94
2023-01-09T04:23:52.625Z,94
2023-01-09T04:24:24.198Z,94
2023-01-09T04:24:56.586Z,95
2023-01-09T04:25:29.659Z,95
2023-01-09T04:26:00.128Z,95
2023-01-09T04:26:32.361Z,94
2023-01-09T04:26:57.075Z,94
2023-01-09T04:27:18.322Z,94
2023-01-09T04:27:52.280Z,94
2023-01-09T04:28:24.197Z,94
2023-01-09T04:28:56.933Z,94
2023-01-09T04:29:27.761Z,94
2023-01-09T04:30:00.277Z,94
2023-01-09T04:30:32.200Z,94
2023-01-09T04:30:54.845Z,94
2023-01-09T04:31:17.264Z,94
2023-01-09T04:31:52.313Z,94
2023-01-09T04:32:24.189Z,94
2023-01-09T04:32:57.551Z,94
2023-01-09T04:33:27.876Z,94
2023-01-09T04:34:00.153Z,94
2023-01-09T04:34:32.169Z,94
2023-01-09T04:34:57.676Z,94
2023-01-09T04:35:18.533Z,94
2023-01-09T04:35:52.052Z,94
2023-01-09T04:36:24.017Z,94
2023-01-09T04:36:58.055Z,94
2023-01-09T04:37:27.999Z,94
2023-01-09T04:38:00.161Z,94
2023-01-09T04:38:32.106Z,94
2023-01-09T04:38:55.489Z,94
2023-01-09T04:39:17.761Z,94
2023-01-09T04:39:52.155Z,94
2023-01-09T04:40:24.170Z,94
2023-01-09T04:41:02.261Z,94
2023-01-09T04:41:24.903Z,94
2023-01-09T04:42:00.555Z,94
2023-01-09T04:42:32.246Z,94
2023-01-09T04:42:54.990Z,94
2023-01-09T04:43:17.352Z,94
2023-01-09T04:43:52.960Z,93
2023-01-09T04:44:25.087Z,93
2023-01-09T04:44:56.350Z,93
2023-01-09T04:45:28.401Z,93
2023-01-09T04:46:00.619Z,93
2023-01-09T04:46:32.845Z,93
2023-01-09T04:46:55.081Z,93
2023-01-09T04:47:17.742Z,93
2023-01-09T04:47:53.082Z,93
2023-01-09T04:48:24.748Z,93
2023-01-09T04:48:56.880Z,93
2023-01-09T04:49:28.613Z,93
2023-01-09T04:50:01.025Z,93
2023-01-09T04:50:32.595Z,93
2023-01-09T04:50:55.349Z,93
2023-01-09T04:51:20.143Z,93
2023-01-09T04:51:52.249Z,93
2023-01-09T04:52:24.696Z,93
2023-01-09T04:52:56.285Z,93
2023-01-09T04:53:29.053Z,93
2023-01-09T04:54:00.186Z,93
2023-01-09T04:54:33.156Z,93
2023-01-09T04:54:55.700Z,93
2023-01-09T04:55:17.991Z,93
2023-01-09T04:55:52.335Z,93
2023-01-09T04:56:24.166Z,93
2023-01-09T04:56:56.333Z,93
2023-01-09T04:57:28.068Z,93
2023-01-09T04:58:00.851Z,93
2023-01-09T04:58:32.325Z,93
2023-01-09T04:58:55.123Z,93
2023-01-09T04:59:17.528Z,93
2023-01-09T04:59:53.450Z,93
2023-01-09T05:00:24.884Z,93
2023-01-09T05:00:56.305Z,93
2023-01-09T05:01:29.244Z,93
2023-01-09T05:02:00.948Z,93
2023-01-09T05:02:32.230Z,93
2023-01-09T05:02:55.328Z,93
2023-01-09T05:03:17.713Z,93
2023-01-09T05:03:52.464Z,93
2023-01-09T05:04:24.741Z,93
2023-01-09T05:04:56.559Z,93
2023-01-09T05:05:27.955Z,93
2023-01-09T05:06:01.141Z,93
2023-01-09T05:06:32.115Z,93
2023-01-09T05:06:54.842Z,93
2023-01-09T05:07:17.730Z,93
2023-01-09T05:07:52.544Z,93
2023-01-09T05:08:26.363Z,93
2023-01-09T05:08:56.754Z,93
2023-01-09T05:09:28.963Z,93
2023-01-09T05:10:01.671Z,93
2023-01-09T05:10:32.088Z,93
2023-01-09T05:10:54.828Z,93
2023-01-09T05:11:17.341Z,93
2023-01-09T05:11:53.098Z,93
2023-01-09T05:12:24.157Z,93
2023-01-09T05:12:56.222Z,93
2023-01-09T05:13:27.946Z,93
2023-01-09T05:14:01.760Z,93
2023-01-09T05:14:32.138Z,93
2023-01-09T05:14:54.944Z,93
2023-01-09T05:15:17.999Z,93
2023-01-09T05:15:52.134Z,93
2023-01-09T05:16:25.375Z,93
2023-01-09T05:16:56.093Z,93
2023-01-09T05:17:28.107Z,93
2023-01-09T05:18:00.101Z,93
2023-01-09T05:18:33.265Z,93
2023-01-09T05:18:55.749Z,93
2023-01-09T05:19:18.565Z,93
2023-01-09T05:19:52.249Z,93
2023-01-09T05:20:25.528Z,93
2023-01-09T05:20:56.534Z,93
2023-01-09T05:21:28.415Z,93
2023-01-09T05:22:00.194Z,93
2023-01-09T05:22:32.477Z,93
2023-01-09T05:22:55.347Z,93
2023-01-09T05:23:18.257Z,93
2023-01-09T05:23:52.303Z,93
2023-01-09T05:24:24.897Z,93
2023-01-09T05:24:56.211Z,93
2023-01-09T05:25:28.143Z,93
2023-01-09T05:26:00.462Z,93
2023-01-09T05:26:32.440Z,93
2023-01-09T05:26:55.005Z,93
2023-01-09T05:27:17.983Z,93
2023-01-09T05:27:53.507Z,93
2023-01-09T05:28:24.276Z,93
2023-01-09T05:28:56.906Z,93
2023-01-09T05:29:29.473Z,93
2023-01-09T05:30:01.894Z,93
2023-01-09T05:30:32.226Z,93
2023-01-09T05:30:54.908Z,93
2023-01-09T05:31:17.527Z,93
2023-01-09T05:31:52.263Z,93
2023-01-09T05:32:24.223Z,93
2023-01-09T05:32:56.168Z,93
2023-01-09T05:33:30.223Z,93
2023-01-09T05:34:00.485Z,93
2023-01-09T05:34:32.550Z,93
2023-01-09T05:34:55.798Z,93
2023-01-09T05:35:18.113Z,93
2023-01-09T05:35:53.294Z,93
2023-01-09T05:36:24.164Z,93
2023-01-09T05:36:56.930Z,93
2023-01-09T05:37:27.961Z,93
2023-01-09T05:38:01.484Z,93
2023-01-09T05:38:32.316Z,93
2023-01-09T05:38:55.242Z,93
2023-01-09T05:39:28.388Z,93
2023-01-09T05:39:52.751Z,93
2023-01-09T05:40:29.006Z,93
2023-01-09T05:40:56.095Z,93
2023-01-09T05:41:27.865Z,93
2023-01-09T05:42:00.015Z,93
2023-01-09T05:42:32.309Z,93
2023-01-09T05:42:55.026Z,93
2023-01-09T05:43:17.672Z,93
2023-01-09T05:43:52.970Z,93
2023-01-09T05:44:28.346Z,93
2023-01-09T05:44:51.036Z,93
2023-01-09T05:45:28.350Z,93
2023-01-09T05:45:59.986Z,93
2023-01-09T05:46:32.201Z,93
2023-01-09T05:46:55.175Z,93
2023-01-09T05:47:17.310Z,93
2023-01-09T05:47:52.006Z,93
2023-01-09T05:48:24.386Z,93
2023-01-09T05:48:55.971Z,93
2023-01-09T05:49:27.772Z,93
2023-01-09T05:50:00.229Z,93
2023-01-09T05:50:32.054Z,93
2023-01-09T05:50:58.324Z,93
2023-01-09T05:51:36.209Z,93
2023-01-09T05:51:59.242Z,93
2023-01-09T05:52:21.678Z,93
2023-01-09T05:52:56.114Z,93
2023-01-09T05:53:27.986Z,93
2023-01-09T05:54:00.104Z,93
2023-01-09T05:54:32.087Z,93
2023-01-09T05:54:54.882Z,93
2023-01-09T05:55:17.197Z,93
2023-01-09T05:55:52.111Z,93
2023-01-09T05:56:24.141Z,93
2023-01-09T05:56:56.158Z,93
2023-01-09T05:57:27.921Z,93
2023-01-09T05:58:01.747Z,93
2023-01-09T05:58:32.061Z,93
2023-01-09T05:58:55.028Z,93
2023-01-09T05:59:17.569Z,93
2023-01-09T05:59:52.284Z,93
2023-01-09T06:00:24.234Z,93
2023-01-09T06:00:56.437Z,93
2023-01-09T06:01:27.971Z,93
2023-01-09T06:02:00.266Z,93
2023-01-09T06:02:32.248Z,93
2023-01-09T06:02:55.226Z,93
2023-01-09T06:03:17.603Z,93
2023-01-09T06:03:52.405Z,93
2023-01-09T06:04:24.308Z,93
2023-01-09T06:04:56.299Z,93
2023-01-09T06:05:27.852Z,93
2023-01-09T06:06:00.310Z,93
2023-01-09T06:06:32.310Z,93
2023-01-09T06:06:55.253Z,93
2023-01-09T06:07:21.048Z,93
2023-01-09T06:07:52.388Z,93
2023-01-09T06:08:24.529Z,93
2023-01-09T06:08:56.081Z,93
2023-01-09T06:09:27.971Z,93
2023-01-09T06:10:00.232Z,93
2023-01-09T06:10:32.461Z,93
2023-01-09T06:10:55.679Z,93
2023-01-09T06:11:18.056Z,93
2023-01-09T06:11:52.109Z,93
2023-01-09T06:12:24.123Z,93
2023-01-09T06:12:56.202Z,93
2023-01-09T06:13:27.825Z,93
2023-01-09T06:14:00.157Z,93
2023-01-09T06:14:32.185Z,93
2023-01-09T06:14:55.342Z,93
2023-01-09T06:15:17.797Z,93
2023-01-09T06:15:52.358Z,93
2023-01-09T06:16:24.381Z,93
2023-01-09T06:16:56.140Z,93
2023-01-09T06:17:27.915Z,93
2023-01-09T06:18:00.254Z,93
2023-01-09T06:18:32.180Z,93
2023-01-09T06:18:55.129Z,93
2023-01-09T06:19:17.419Z,93
2023-01-09T06:19:52.041Z,93
2023-01-09T06:20:24.538Z,93
2023-01-09T06:21:01.764Z,93
2023-01-09T06:21:29.394Z,93
2023-01-09T06:22:00.211Z,93
2023-01-09T06:22:33.221Z,93
2023-01-09T06:23:01.131Z,93
2023-01-09T06:23:40.069Z,93
2023-01-09T06:24:02.394Z,93
2023-01-09T06:24:41.027Z,93
2023-01-09T06:25:03.513Z,93
2023-01-09T06:25:26.370Z,93
2023-01-09T06:26:01.158Z,93
2023-01-09T06:26:32.685Z,93
2023-01-09T06:26:55.506Z,93
2023-01-09T06:27:18.220Z,92
2023-01-09T06:27:54.211Z,92
2023-01-09T06:28:24.816Z,92
2023-01-09T06:28:56.686Z,92
2023-01-09T06:29:28.303Z,92
2023-01-09T06:30:00.129Z,92
2023-01-09T06:30:32.172Z,92
2023-01-09T06:30:55.182Z,92
2023-01-09T06:31:18.412Z,92
2023-01-09T06:31:52.711Z,92
2023-01-09T06:32:24.173Z,92
2023-01-09T06:32:56.176Z,92
2023-01-09T06:33:32.359Z,92
2023-01-09T06:33:54.865Z,92
2023-01-09T06:34:27.921Z,92
2023-01-09T06:34:59.650Z,92
2023-01-09T06:35:36.578Z,92
2023-01-09T06:35:59.000Z,92
2023-01-09T06:36:22.450Z,92
2023-01-09T06:36:56.206Z,92
2023-01-09T06:37:27.879Z,92
2023-01-09T06:38:00.234Z,92
2023-01-09T06:38:32.283Z,92
2023-01-09T06:38:55.951Z,92
2023-01-09T06:39:21.241Z,92
2023-01-09T06:39:52.314Z,92
2023-01-09T06:40:24.723Z,92
2023-01-09T06:40:56.181Z,92
2023-01-09T06:41:29.462Z,92
2023-01-09T06:42:00.232Z,92
2023-01-09T06:42:32.401Z,92
2023-01-09T06:42:54.954Z,92
2023-01-09T06:43:17.481Z,92
2023-01-09T06:43:52.171Z,92
2023-01-09T06:44:24.187Z,92
2023-01-09T06:44:56.226Z,91
2023-01-09T06:45:28.437Z,91
2023-01-09T06:46:00.353Z,91
2023-01-09T06:46:32.179Z,91
2023-01-09T06:46:54.975Z,91
2023-01-09T06:47:17.497Z,91
2023-01-09T06:47:52.328Z,91
2023-01-09T06:48:24.322Z,91
2023-01-09T06:48:56.469Z,91
2023-01-09T06:49:28.202Z,91
2023-01-09T06:50:00.273Z,91
2023-01-09T06:50:32.599Z,91
2023-01-09T06:50:55.751Z,91
2023-01-09T06:51:18.132Z,91
2023-01-09T06:51:52.230Z,91
2023-01-09T06:52:24.101Z,91
2023-01-09T06:52:56.247Z,91
2023-01-09T06:53:28.061Z,91
2023-01-09T06:54:00.293Z,91
2023-01-09T06:54:32.108Z,91
2023-01-09T06:54:55.288Z,91
2023-01-09T06:55:21.360Z,91
2023-01-09T06:55:52.055Z,91
2023-01-09T06:56:24.192Z,91
2023-01-09T06:56:56.213Z,91
2023-01-09T06:57:27.943Z,91
2023-01-09T06:58:00.273Z,91
2023-01-09T06:58:32.064Z,91
2023-01-09T06:58:55.065Z,91
2023-01-09T06:59:19.382Z,91
2023-01-09T06:59:52.177Z,91
2023-01-09T07:00:42.256Z,91
2023-01-09T07:01:12.551Z,91
2023-01-09T07:01:44.314Z,91
2023-01-09T07:02:07.045Z,91
2023-01-09T07:02:29.412Z,91
2023-01-09T07:02:59.573Z,91
2023-01-09T07:03:36.638Z,91
2023-01-09T07:03:58.981Z,91
2023-01-09T07:04:21.872Z,91
2023-01-09T07:04:56.547Z,91
2023-01-09T07:05:28.434Z,91
2023-01-09T07:06:00.306Z,91
2023-01-09T07:06:32.164Z,91
2023-01-09T07:06:54.905Z,90
2023-01-09T07:07:17.480Z,90
2023-01-09T07:07:52.346Z,90